Time;durP1;ratioP1;P1;durP2;ratioP2;P2;SDS_P1;SDS_P2;PMS_P1;PMS_P2;Temp;Humidity;BMP_temperature;BMP_pressure;BME280_temperature;BME280_humidity;BME280_pressure;Samples;Min_cycle;Max_cycle;Signal;HPM_P1;HPM_P2
2021/05/28 00:02:23;;;;;;;24.15;9.43;;;;;;;14.35;100.00;100879.75;1679808;85;21610;-89
2021/05/28 00:04:49;;;;;;;31.07;9.95;;;;;;;14.20;100.00;100878.72;1679771;85;20935;-89
2021/05/28 00:07:15;;;;;;;27.10;8.95;;;;;;;14.20;100.00;100881.98;1679783;85;20911;-88
2021/05/28 00:09:41;;;;;;;22.90;8.05;;;;;;;14.20;100.00;100881.98;1679928;85;20910;-89
2021/05/28 00:12:08;;;;;;;18.73;7.95;;;;;;;14.25;100.00;100880.61;1679706;85;21093;-88
2021/05/28 00:14:34;;;;;;;19.55;8.45;;;;;;;14.17;100.00;100876.56;1679704;85;21105;-88
2021/05/28 00:17:00;;;;;;;18.23;7.50;;;;;;;14.21;100.00;100878.20;1679791;85;20938;-89
2021/05/28 00:19:26;;;;;;;19.42;7.67;;;;;;;14.19;100.00;100879.81;1679728;85;21081;-89
2021/05/28 00:21:52;;;;;;;22.55;7.85;;;;;;;14.15;100.00;100879.27;1680109;85;21065;-89
2021/05/28 00:24:20;;;;;;;26.80;7.80;;;;;;;14.06;100.00;100885.29;1680004;85;20886;-89
2021/05/28 00:26:46;;;;;;;23.62;8.05;;;;;;;14.03;100.00;100883.13;1679620;85;21085;-89
2021/05/28 00:29:12;;;;;;;23.87;7.58;;;;;;;14.05;100.00;100880.13;1679738;85;21233;-88
2021/05/28 00:31:38;;;;;;;17.45;6.30;;;;;;;14.01;100.00;100875.00;1679681;85;21010;-88
2021/05/28 00:34:04;;;;;;;20.82;6.35;;;;;;;13.96;100.00;100870.95;1680096;85;20914;-89
2021/05/28 00:36:30;;;;;;;21.93;6.58;;;;;;;13.92;100.00;100875.31;1679593;84;21513;-88
2021/05/28 00:38:56;;;;;;;21.52;7.85;;;;;;;13.85;100.00;100868.28;1681502;84;21019;-88
2021/05/28 00:41:22;;;;;;;17.35;6.45;;;;;;;13.80;100.00;100868.83;1681190;84;20990;-88
2021/05/28 00:43:48;;;;;;;18.35;7.08;;;;;;;13.79;100.00;100860.42;1681478;84;21609;-89
2021/05/28 00:46:14;;;;;;;18.30;6.62;;;;;;;13.83;100.00;100861.52;1681371;84;21057;-89
2021/05/28 00:48:40;;;;;;;18.02;6.33;;;;;;;13.82;100.00;100862.58;1681569;84;21030;-89
2021/05/28 00:51:07;;;;;;;14.80;6.20;;;;;;;13.73;100.00;100860.16;1681393;84;21861;-89
2021/05/28 00:53:33;;;;;;;16.57;6.03;;;;;;;13.68;100.00;100856.11;1638928;85;21610;-89
2021/05/28 00:56:00;;;;;;;16.85;6.42;;;;;;;13.67;100.00;100853.14;1681190;84;21057;-88
2021/05/28 00:58:27;;;;;;;16.10;6.50;;;;;;;13.66;100.00;100852.88;1681562;84;21117;-89
2021/05/28 01:00:53;;;;;;;20.23;6.33;;;;;;;13.67;100.00;100850.43;1681258;84;21013;-88
2021/05/28 01:03:19;;;;;;;13.68;6.15;;;;;;;13.71;100.00;100854.23;1681442;84;21724;-88
2021/05/28 01:05:46;;;;;;;18.55;6.42;;;;;;;13.72;100.00;100849.88;1681242;84;20973;-88
2021/05/28 01:08:12;;;;;;;19.12;5.92;;;;;;;13.72;100.00;100852.59;1681313;83;21076;-88
2021/05/28 01:10:38;;;;;;;19.07;5.90;;;;;;;13.71;100.00;100851.52;1681281;84;21017;-88
2021/05/28 01:13:07;;;;;;;16.40;6.15;;;;;;;13.67;100.00;100843.66;1681483;84;21103;-89
2021/05/28 01:15:34;;;;;;;14.87;5.67;;;;;;;13.58;100.00;100845.56;1591530;90;21246;-88
2021/05/28 01:18:00;;;;;;;13.32;5.35;;;;;;;13.56;100.00;100844.20;1574315;89;21119;-88
2021/05/28 01:20:27;;;;;;;13.75;5.62;;;;;;;13.54;100.00;100840.44;1574396;90;21590;-88
2021/05/28 01:22:53;;;;;;;20.15;5.70;;;;;;;13.50;100.00;100836.66;1574235;90;21037;-88
2021/05/28 01:25:21;;;;;;;24.20;5.85;;;;;;;13.49;100.00;100835.56;1574335;90;21097;-88
2021/05/28 01:27:47;;;;;;;17.67;5.10;;;;;;;13.48;100.00;100828.55;1598732;89;21103;-89
2021/05/28 01:30:15;;;;;;;14.15;5.45;;;;;;;13.46;100.00;100830.16;1598882;89;20933;-88
2021/05/28 01:32:43;;;;;;;13.75;6.00;;;;;;;13.42;100.00;100834.50;1598773;89;21088;-89
2021/05/28 01:35:14;;;;;;;13.25;5.90;;;;;;;13.40;100.00;100836.66;1598794;89;21048;-88
2021/05/28 01:37:41;;;;;;;18.27;6.60;;;;;;;13.42;100.00;100837.20;1598696;89;21016;-88
2021/05/28 01:40:09;;;;;;;22.40;7.12;;;;;;;13.39;100.00;100834.50;1598881;89;21096;-88
2021/05/28 01:42:36;;;;;;;16.60;6.97;;;;;;;13.38;100.00;100832.05;1598744;89;21092;-88
2021/05/28 01:45:05;;;;;;;16.17;7.28;;;;;;;13.39;100.00;100835.05;1598896;89;21104;-87
2021/05/28 01:47:31;;;;;;;16.40;6.80;;;;;;;13.40;100.00;100825.28;1598886;89;21703;-88
2021/05/28 01:49:57;;;;;;;18.62;7.22;;;;;;;13.43;100.00;100826.64;1598786;89;21024;-88
2021/05/28 01:52:25;;;;;;;18.57;6.87;;;;;;;13.43;100.00;100826.64;1598921;89;21127;-88
2021/05/28 01:54:51;;;;;;;17.82;5.97;;;;;;;13.44;100.00;100826.09;1598521;89;21060;-88
2021/05/28 01:57:18;;;;;;;15.35;6.35;;;;;;;13.44;100.00;100822.84;1598845;89;21088;-88
2021/05/28 01:59:45;;;;;;;24.43;7.25;;;;;;;13.46;100.00;100821.22;1599094;89;21052;-88
2021/05/28 02:02:13;;;;;;;15.98;6.15;;;;;;;13.47;100.00;100825.03;1598891;89;21177;-88
2021/05/28 02:04:41;;;;;;;18.62;6.70;;;;;;;13.51;100.00;100822.03;1598709;89;21380;-88
2021/05/28 02:07:08;;;;;;;19.12;6.97;;;;;;;13.54;100.00;100822.03;1598888;89;21068;-89
2021/05/28 02:09:34;;;;;;;15.32;6.42;;;;;;;13.53;100.00;100822.58;1598831;89;21070;-88
2021/05/28 02:12:00;;;;;;;25.17;6.83;;;;;;;13.56;100.00;100819.32;1620268;85;21079;-88
2021/05/28 02:14:28;;;;;;;18.40;7.10;;;;;;;13.55;100.00;100823.09;1667660;85;21565;-89
2021/05/28 02:16:54;;;;;;;22.07;7.10;;;;;;;13.51;100.00;100816.62;1667485;85;21885;-88
2021/05/28 02:19:20;;;;;;;21.25;6.62;;;;;;;13.36;100.00;100820.70;1667328;85;21085;-88
2021/05/28 02:21:49;;;;;;;19.55;6.12;;;;;;;13.49;100.00;100820.67;1667655;85;21146;-88
2021/05/28 02:24:17;;;;;;;14.13;5.90;;;;;;;13.57;100.00;100819.58;1633460;87;21073;-88
2021/05/28 02:26:46;;;;;;;15.28;6.90;;;;;;;13.62;100.00;100821.48;1618716;88;20989;-88
2021/05/28 02:29:15;;;;;;;16.42;5.80;;;;;;;13.60;100.00;100823.09;1597143;89;21258;-89
2021/05/28 02:31:42;;;;;;;12.78;5.92;;;;;;;13.71;100.00;100813.61;1597029;89;21563;-89
2021/05/28 02:34:09;;;;;;;16.45;5.92;;;;;;;13.81;100.00;100817.63;1597280;89;21183;-88
2021/05/28 02:36:35;;;;;;;19.67;6.60;;;;;;;13.88;100.00;100822.19;1597206;89;21103;-89
2021/05/28 02:39:01;;;;;;;14.90;6.00;;;;;;;13.82;100.00;100827.36;1597303;89;21049;-89
2021/05/28 02:41:27;;;;;;;16.55;6.05;;;;;;;13.92;100.00;100819.77;1597373;89;21775;-88
2021/05/28 02:43:53;;;;;;;16.45;6.15;;;;;;;14.03;100.00;100823.52;1597146;89;20922;-88
2021/05/28 02:46:19;;;;;;;26.57;11.90;;;;;;;14.19;100.00;100829.67;1597015;89;20953;-88
2021/05/28 02:48:45;;;;;;;63.33;37.38;;;;;;;14.27;100.00;100813.38;1597291;89;21680;-88
2021/05/28 02:51:11;;;;;;;140.22;67.25;;;;;;;14.61;100.00;100820.80;1597276;89;20968;-89
2021/05/28 02:53:37;;;;;;;50.17;24.60;;;;;;;14.70;100.00;100824.53;1597336;89;21157;-88
2021/05/28 02:56:05;;;;;;;24.30;9.60;;;;;;;14.78;100.00;100820.42;1597173;89;23006;-88
2021/05/28 02:58:33;;;;;;;23.12;12.00;;;;;;;14.78;100.00;100821.23;1597299;89;21148;-88
2021/05/28 03:00:59;;;;;;;26.87;12.82;;;;;;;14.89;100.00;100820.06;1597097;89;21132;-88
2021/05/28 03:03:25;;;;;;;20.70;7.42;;;;;;;14.84;100.00;100825.52;1597334;89;21639;-89
2021/05/28 03:05:52;;;;;;;16.90;6.60;;;;;;;14.95;100.00;100825.72;1597190;89;21153;-88
2021/05/28 03:08:19;;;;;;;20.80;5.87;;;;;;;15.03;100.00;100822.12;1597498;89;21033;-88
2021/05/28 03:10:46;;;;;;;18.57;6.22;;;;;;;15.20;100.00;100826.59;1597222;89;21121;-88
2021/05/28 03:13:13;;;;;;;18.87;6.40;;;;;;;15.39;100.00;100824.80;1597243;89;21567;-88
2021/05/28 03:15:40;;;;;;;12.98;5.62;;;;;;;15.62;100.00;100831.36;1597249;89;21120;-88
2021/05/28 03:18:14;;;;;;;13.90;6.67;;;;;;;16.07;100.00;100821.65;1597579;89;21140;-88
2021/05/28 03:20:36;;;;;;;15.63;5.90;;;;;;;16.74;100.00;100818.27;1606309;87;21132;-88
2021/05/28 03:23:04;;;;;;;13.70;5.80;;;;;;;17.29;100.00;100821.75;1627822;86;21182;-89
2021/05/28 03:25:30;;;;;;;12.25;5.72;;;;;;;18.01;100.00;100818.52;1637702;86;21009;-88
2021/05/28 03:27:56;;;;;;;14.95;5.00;;;;;;;18.68;100.00;100818.42;1676230;84;21633;-88
2021/05/28 03:30:22;;;;;;;14.98;5.80;;;;;;;19.24;100.00;100816.54;1676374;84;21136;-88
2021/05/28 03:32:48;;;;;;;17.27;5.20;;;;;;;19.87;100.00;100815.95;1676287;84;21546;-88
2021/05/28 03:35:14;;;;;;;16.27;5.50;;;;;;;20.12;100.00;100814.44;1676518;84;20990;-89
2021/05/28 03:37:40;;;;;;;18.98;5.22;;;;;;;21.07;100.00;100812.87;1676379;84;21066;-89
2021/05/28 03:40:09;;;;;;;18.20;5.72;;;;;;;21.64;100.00;100818.04;1676393;84;21569;-89
2021/05/28 03:42:35;;;;;;;17.37;6.20;;;;;;;21.73;100.00;100817.43;1676204;84;21656;-88
2021/05/28 03:45:04;;;;;;;24.00;5.97;;;;;;;21.63;93.28;100822.50;1676483;84;21053;-88
2021/05/28 03:47:31;;;;;;;16.55;5.45;;;;;;;21.96;100.00;100810.31;1676349;85;21058;-88
2021/05/28 03:49:56;;;;;;;23.30;6.05;;;;;;;21.91;90.81;100812.69;1676246;84;21081;-89
2021/05/28 03:52:22;;;;;;;16.07;6.00;;;;;;;22.07;98.41;100810.17;1676485;84;20879;-87
2021/05/28 03:54:48;;;;;;;15.48;5.60;;;;;;;22.48;89.11;100811.95;1676415;84;21494;-87
2021/05/28 03:57:15;;;;;;;31.10;5.35;;;;;;;22.13;86.96;100810.78;1676059;85;21566;-87
2021/05/28 03:59:40;;;;;;;34.03;6.87;;;;;;;23.27;86.27;100803.23;1676849;84;21101;-87
2021/05/28 04:02:06;;;;;;;29.15;7.10;;;;;;;23.04;77.94;100809.13;1676520;84;21612;-88
2021/05/28 04:04:33;;;;;;;32.35;6.95;;;;;;;23.03;73.79;100806.70;1676590;84;20918;-88
2021/05/28 04:07:01;;;;;;;44.98;8.00;;;;;;;23.32;72.76;100811.25;1691984;84;21354;-88
2021/05/28 04:09:27;;;;;;;44.35;7.17;;;;;;;23.93;77.47;100806.41;1696327;83;21116;-89
2021/05/28 04:11:53;;;;;;;31.37;6.67;;;;;;;24.62;73.73;100814.20;1692956;83;21108;-90
2021/05/28 04:14:19;;;;;;;39.25;7.22;;;;;;;24.21;64.46;100814.18;1696620;83;21080;-89
2021/05/28 04:16:45;;;;;;;20.77;6.35;;;;;;;24.30;67.27;100811.30;1696330;83;21493;-89
2021/05/28 04:19:11;;;;;;;34.63;6.67;;;;;;;24.72;65.87;100818.44;1696451;84;21054;-90
2021/05/28 04:21:37;;;;;;;27.22;6.33;;;;;;;23.91;65.88;100816.37;1696365;84;20922;-89
2021/05/28 04:24:04;;;;;;;29.12;6.37;;;;;;;24.88;66.53;100813.21;1696474;83;21009;-88
2021/05/28 04:26:30;;;;;;;29.27;6.80;;;;;;;25.12;65.84;100808.73;1696314;83;21759;-89
2021/05/28 04:28:56;;;;;;;37.35;7.53;;;;;;;25.75;59.44;100812.91;1696670;83;20910;-88
2021/05/28 04:31:22;;;;;;;24.92;7.47;;;;;;;25.36;59.50;100806.42;1696505;83;21512;-88
2021/05/28 04:33:48;;;;;;;30.72;6.85;;;;;;;25.32;60.88;100809.07;1696226;83;20952;-89
2021/05/28 04:36:14;;;;;;;30.70;6.12;;;;;;;24.76;61.87;100810.48;1696517;83;21080;-87
2021/05/28 04:38:40;;;;;;;27.32;5.37;;;;;;;25.65;57.12;100805.73;1696518;83;21080;-89
2021/05/28 04:41:06;;;;;;;23.45;5.78;;;;;;;25.67;55.77;100801.47;1696326;83;21653;-91
2021/05/28 04:43:32;;;;;;;24.85;5.45;;;;;;;25.79;56.68;100804.13;1696402;83;21065;-87
2021/05/28 04:45:57;;;;;;;21.87;5.72;;;;;;;26.59;53.04;100809.48;1676541;84;20991;-88
2021/05/28 04:48:23;;;;;;;24.55;5.42;;;;;;;27.35;49.61;100800.89;1696636;84;20989;-88
2021/05/28 04:50:49;;;;;;;20.57;5.20;;;;;;;28.08;48.48;100798.11;1696488;83;20949;-91
2021/05/28 04:53:18;;;;;;;21.97;4.78;;;;;;;28.41;47.03;100790.46;1676858;83;21044;-90
2021/05/28 04:55:44;;;;;;;16.97;4.80;;;;;;;29.40;45.29;100787.19;1696545;83;21186;-91
2021/05/28 04:58:15;;;;;;;22.02;5.00;;;;;;;29.89;45.37;100792.16;1696994;83;21049;-90
2021/05/28 05:00:41;;;;;;;23.95;5.00;;;;;;;29.66;43.02;100788.22;1577023;89;21117;-92
2021/05/28 05:03:07;;;;;;;12.00;4.83;;;;;;;29.43;43.87;100789.19;1596987;89;20994;-91
2021/05/28 05:05:33;;;;;;;18.30;4.58;;;;;;;30.85;43.80;100788.26;1575621;89;21033;-90
2021/05/28 05:07:59;;;;;;;8.23;4.50;;;;;;;31.45;41.49;100782.80;1591819;90;21764;-90
2021/05/28 05:10:25;;;;;;;17.12;4.30;;;;;;;32.26;40.05;100772.50;1591487;90;20934;-90
2021/05/28 05:12:51;;;;;;;16.35;4.20;;;;;;;31.13;37.75;100779.97;1591522;90;21214;-90
2021/05/28 05:15:17;;;;;;;18.70;4.47;;;;;;;30.72;38.02;100776.67;1591598;90;21103;-87
2021/05/28 05:17:43;;;;;;;28.55;6.72;;;;;;;29.52;38.89;100776.97;1591603;90;20962;-87
2021/05/28 05:20:10;;;;;;;49.63;9.50;;;;;;;29.04;39.59;100779.72;1591452;90;21159;-88
2021/05/28 05:22:37;;;;;;;44.95;10.43;;;;;;;29.92;38.56;100776.09;1591498;89;21081;-87
2021/05/28 05:25:05;;;;;;;52.08;11.57;;;;;;;29.87;38.05;100773.08;1591502;90;21612;-86
2021/05/28 05:27:31;;;;;;;46.28;10.03;;;;;;;30.31;40.19;100774.93;1591566;90;21065;-86
2021/05/28 05:29:56;;;;;;;42.25;8.78;;;;;;;30.24;37.94;100773.52;1591818;90;20890;-88
2021/05/28 05:32:22;;;;;;;38.60;9.63;;;;;;;31.52;36.24;100775.02;1591592;90;21587;-87
2021/05/28 05:34:48;;;;;;;49.10;10.20;;;;;;;31.22;36.42;100772.02;1591567;90;21149;-88
2021/05/28 05:37:14;;;;;;;48.80;10.65;;;;;;;32.32;35.57;100763.91;1591562;90;20948;-88
2021/05/28 05:39:40;;;;;;;39.10;9.50;;;;;;;33.47;35.05;100756.44;1591544;90;21631;-87
2021/05/28 05:42:07;;;;;;;43.80;10.78;;;;;;;31.32;35.87;100766.23;1591683;90;21441;-87
2021/05/28 05:44:33;;;;;;;33.73;8.80;;;;;;;32.01;36.54;100761.45;1591637;90;21412;-87
2021/05/28 05:46:59;;;;;;;23.62;7.42;;;;;;;33.50;34.71;100758.98;1591496;90;20954;-88
2021/05/28 05:49:25;;;;;;;32.10;6.78;;;;;;;32.34;34.44;100753.15;1591628;90;21249;-87
2021/05/28 05:51:50;;;;;;;17.45;5.20;;;;;;;33.87;34.34;100749.86;1591553;90;20934;-87
2021/05/28 05:54:16;;;;;;;14.95;5.60;;;;;;;33.93;32.15;100750.98;1591630;90;21723;-87
2021/05/28 05:56:42;;;;;;;26.25;5.62;;;;;;;32.49;32.81;100751.91;1588134;90;21098;-87
2021/05/28 05:59:08;;;;;;;16.32;5.70;;;;;;;31.24;34.62;100753.53;1591595;90;21105;-89
2021/05/28 17:00:17;;;;;;;24.20;6.25;;;;;;;23.09;100.00;100406.75;1700160;82;21104;-87
2021/05/28 17:02:46;;;;;;;18.48;6.62;;;;;;;23.11;100.00;100407.97;1722636;81;21248;-88
2021/05/28 17:05:13;;;;;;;23.60;7.58;;;;;;;23.09;100.00;100407.55;1714622;83;21068;-89
2021/05/28 17:07:39;;;;;;;17.90;7.42;;;;;;;23.10;100.00;100407.76;1697962;83;21587;-88
2021/05/28 17:10:06;;;;;;;20.05;7.65;;;;;;;23.07;100.00;100403.54;1694740;84;20938;-87
2021/05/28 17:12:32;;;;;;;18.00;7.20;;;;;;;23.03;100.00;100397.13;1698090;83;21083;-87
2021/05/28 17:14:58;;;;;;;16.20;7.33;;;;;;;22.92;100.00;100400.13;1698071;83;21572;-87
2021/05/28 17:17:24;;;;;;;19.92;7.05;;;;;;;22.84;100.00;100397.73;1698056;83;20984;-87
2021/05/28 17:19:50;;;;;;;23.57;6.90;;;;;;;22.82;100.00;100395.90;1702971;81;21072;-87
2021/05/28 17:22:16;;;;;;;15.80;6.65;;;;;;;22.73;100.00;100385.04;1722633;81;21642;-88
2021/05/28 17:24:42;;;;;;;27.40;6.97;;;;;;;22.71;100.00;100392.84;1723075;82;21369;-88
2021/05/28 17:27:08;;;;;;;21.27;6.12;;;;;;;22.65;100.00;100384.62;1723477;82;21080;-91
2021/05/28 17:29:34;;;;;;;18.27;5.35;;;;;;;22.51;100.00;100387.73;1723388;81;20909;-90
2021/05/28 17:32:00;;;;;;;18.07;5.15;;;;;;;22.48;100.00;100389.00;1723515;81;21000;-91
2021/05/28 17:34:26;;;;;;;14.93;5.35;;;;;;;22.32;100.00;100383.39;1723733;82;21477;-89
2021/05/28 17:36:52;;;;;;;14.80;4.95;;;;;;;22.23;100.00;100387.05;1723510;81;21032;-90
2021/05/28 17:39:18;;;;;;;20.97;5.00;;;;;;;22.12;100.00;100385.89;1723723;81;21107;-90
2021/05/28 17:41:44;;;;;;;16.95;4.42;;;;;;;22.23;100.00;100387.62;1723392;81;21047;-89
2021/05/28 17:44:11;;;;;;;12.90;5.10;;;;;;;22.21;100.00;100386.61;1719983;81;21016;-90
2021/05/28 17:46:37;;;;;;;13.55;4.65;;;;;;;22.21;100.00;100387.98;1723305;81;21084;-89
2021/05/28 17:49:05;;;;;;;14.20;5.10;;;;;;;22.11;100.00;100387.59;1704942;82;21028;-90
2021/05/28 17:51:31;;;;;;;19.95;5.37;;;;;;;22.12;100.00;100390.02;1723345;81;21225;-89
2021/05/28 17:53:58;;;;;;;16.82;4.22;;;;;;;22.02;100.00;100397.88;1704609;81;21517;-90
2021/05/28 17:56:24;;;;;;;18.35;4.85;;;;;;;21.92;100.00;100397.19;1723594;81;21239;-90
2021/05/28 17:58:50;;;;;;;11.83;4.78;;;;;;;21.85;100.00;100397.52;1723318;81;21056;-89
2021/05/28 18:01:16;;;;;;;21.07;4.75;;;;;;;21.81;100.00;100402.89;1723522;81;21110;-89
2021/05/28 18:03:42;;;;;;;19.75;4.62;;;;;;;21.71;100.00;100397.28;1723356;81;21665;-89
2021/05/28 18:06:08;;;;;;;26.68;5.22;;;;;;;21.64;100.00;100399.75;1723382;81;21150;-89
2021/05/28 18:08:34;;;;;;;15.15;5.20;;;;;;;21.59;100.00;100402.73;1723418;82;21642;-89
2021/05/28 18:11:00;;;;;;;13.80;4.90;;;;;;;21.53;100.00;100403.52;1697775;83;21069;-90
2021/05/28 18:13:27;;;;;;;18.12;4.75;;;;;;;21.49;100.00;100400.41;1719793;81;21317;-90
2021/05/28 18:15:55;;;;;;;16.30;4.62;;;;;;;21.44;100.00;100404.72;1705118;82;21157;-90
2021/05/28 18:18:22;;;;;;;20.77;5.00;;;;;;;21.39;100.00;100404.38;1718882;81;21216;-90
2021/05/28 18:20:48;;;;;;;15.05;4.90;;;;;;;21.36;100.00;100405.60;1704122;82;21080;-90
2021/05/28 18:23:16;;;;;;;17.40;5.00;;;;;;;21.29;100.00;100407.50;1720130;81;21552;-90
2021/05/28 18:25:42;;;;;;;16.50;5.10;;;;;;;21.25;100.00;100409.31;1723239;81;21053;-89
2021/05/28 18:28:08;;;;;;;13.75;5.10;;;;;;;21.22;100.00;100410.78;1723182;81;21092;-90
2021/05/28 18:30:35;;;;;;;19.70;4.97;;;;;;;21.19;100.00;100416.14;1704855;82;21667;-90
2021/05/28 18:33:03;;;;;;;35.08;5.92;;;;;;;21.09;100.00;100408.56;1705050;82;21103;-90
2021/05/28 18:35:32;;;;;;;22.62;6.55;;;;;;;21.00;100.00;100411.13;1723624;81;21103;-90
2021/05/28 18:37:58;;;;;;;24.12;9.18;;;;;;;20.91;100.00;100413.13;1720355;83;21124;-90
2021/05/28 18:40:29;;;;;;;32.30;9.15;;;;;;;20.82;100.00;100415.94;1723293;82;21135;-90
2021/05/28 18:42:55;;;;;;;45.43;14.68;;;;;;;20.73;100.00;100409.14;1723345;81;21088;-90
2021/05/28 18:45:22;;;;;;;77.92;28.15;;;;;;;20.64;100.00;100413.88;1723245;83;21652;-90
2021/05/28 18:47:50;;;;;;;110.42;40.12;;;;;;;20.64;100.00;100413.31;1723484;81;21044;-90
2021/05/28 18:50:20;;;;;;;107.22;36.75;;;;;;;20.67;100.00;100409.68;1723299;81;21072;-90
2021/05/28 18:52:46;;;;;;;103.47;33.48;;;;;;;20.76;100.00;100411.22;1724562;81;21798;-90
2021/05/28 18:55:17;;;;;;;76.85;23.87;;;;;;;20.78;100.00;100413.64;1717716;83;21032;-90
2021/05/28 18:57:43;;;;;;;67.80;21.45;;;;;;;20.79;100.00;100416.03;1610993;87;21080;-89
2021/05/28 19:00:15;;;;;;;113.05;41.45;;;;;;;20.76;100.00;100410.42;1611136;87;21011;-90
2021/05/28 19:02:42;;;;;;;199.20;62.62;;;;;;;20.75;100.00;100415.67;1601810;88;20992;-90
2021/05/28 19:05:11;;;;;;;185.88;57.58;;;;;;;20.71;100.00;100418.28;1597943;88;21072;-90
2021/05/28 19:07:38;;;;;;;155.52;42.98;;;;;;;20.72;100.00;100412.23;1597553;88;21075;-89
2021/05/28 19:10:11;;;;;;;107.15;29.87;;;;;;;20.66;100.00;100414.36;1597840;88;21536;-89
2021/05/28 19:12:38;;;;;;;92.12;26.65;;;;;;;20.61;100.00;100407.13;1598013;88;21075;-89
2021/05/28 19:15:08;;;;;;;87.30;26.00;;;;;;;20.61;100.00;100407.70;1597872;88;21116;-89
2021/05/28 19:17:34;;;;;;;71.00;22.40;;;;;;;20.62;100.00;100405.22;1597924;88;21146;-89
2021/05/28 19:20:00;;;;;;;62.90;21.60;;;;;;;20.62;100.00;100407.38;1597653;88;21047;-89
2021/05/28 19:22:26;;;;;;;56.30;20.40;;;;;;;20.64;100.00;100405.66;1597910;88;21142;-88
2021/05/28 19:24:52;;;;;;;54.70;18.25;;;;;;;20.65;100.00;100405.92;1597994;88;20965;-89
2021/05/28 19:27:18;;;;;;;60.63;19.73;;;;;;;20.65;100.00;100403.19;1597986;88;21012;-89
2021/05/28 19:29:44;;;;;;;53.83;17.40;;;;;;;20.63;100.00;100407.61;1597718;88;21195;-89
2021/05/28 19:32:10;;;;;;;40.78;13.80;;;;;;;20.53;100.00;100408.01;1597934;88;20957;-89
2021/05/28 19:34:36;;;;;;;42.85;13.95;;;;;;;20.42;100.00;100397.97;1597731;88;20979;-89
2021/05/28 19:37:04;;;;;;;31.23;10.13;;;;;;;20.45;100.00;100406.09;1597827;88;21084;-89
2021/05/28 19:39:30;;;;;;;29.65;9.55;;;;;;;20.41;100.00;100400.48;1577509;88;21156;-89
2021/05/28 19:41:56;;;;;;;24.75;9.23;;;;;;;20.38;100.00;100393.47;1554397;92;21084;-89
2021/05/28 19:44:22;;;;;;;30.88;10.55;;;;;;;20.33;100.00;100401.89;1554194;92;21053;-90
2021/05/28 19:46:48;;;;;;;41.13;13.25;;;;;;;20.36;100.00;100401.23;1554128;92;21716;-89
2021/05/28 19:49:14;;;;;;;74.80;21.33;;;;;;;20.34;100.00;100398.02;1554166;92;21132;-89
2021/05/28 19:51:41;;;;;;;105.92;30.77;;;;;;;20.33;100.00;100395.05;1558929;90;20979;-90
2021/05/28 19:56:34;;;;;;;163.12;42.98;;;;;;;20.27;100.00;100382.12;1672429;84;21137;-89
2021/05/28 19:59:03;;;;;;;171.75;46.05;;;;;;;20.27;100.00;100383.48;1643870;84;21073;-89
2021/05/28 20:01:31;;;;;;;155.90;42.10;;;;;;;20.30;100.00;100378.72;1669715;84;21040;-89
2021/05/28 20:04:00;;;;;;;171.45;47.17;;;;;;;20.27;100.00;100369.01;1646069;87;21109;-89
2021/05/28 20:06:27;;;;;;;171.37;42.15;;;;;;;20.36;100.00;100371.12;1646140;85;21068;-89
2021/05/28 20:08:54;;;;;;;137.92;34.60;;;;;;;20.35;100.00;100370.33;1645940;85;21120;-90
2021/05/28 20:11:29;;;;;;;128.27;34.75;;;;;;;20.29;100.00;100365.35;1645999;87;21136;-90
2021/05/28 20:16:36;;;;;;;79.10;22.98;;;;;;;20.36;100.00;100365.65;1628494;87;21069;-90
2021/05/28 20:19:03;;;;;;;75.10;21.23;;;;;;;20.28;100.00;100371.40;1642487;87;21274;-90
2021/05/28 20:21:30;;;;;;;60.88;17.57;;;;;;;20.27;100.00;100370.38;1646109;87;21097;-90
2021/05/28 20:24:01;;;;;;;53.08;15.95;;;;;;;20.20;100.00;100368.13;1646228;87;20989;-90
2021/05/28 20:26:24;;;;;;;37.23;12.03;;;;;;;20.21;100.00;100364.28;1641990;87;21000;-90
2021/05/28 20:28:50;;;;;;;40.60;12.47;;;;;;;20.18;100.00;100369.05;1645922;86;21666;-89
2021/05/28 20:31:16;;;;;;;35.20;11.00;;;;;;;20.23;100.00;100366.67;1646014;85;21185;-89
2021/05/28 20:33:42;;;;;;;26.82;9.70;;;;;;;20.26;100.00;100367.38;1646059;85;20962;-90
2021/05/28 20:36:08;;;;;;;28.70;9.40;;;;;;;20.25;100.00;100366.58;1646177;86;21161;-89
2021/05/28 20:38:36;;;;;;;30.52;9.03;;;;;;;20.25;100.00;100367.95;1637234;84;21612;-90
2021/05/28 20:41:03;;;;;;;33.42;10.75;;;;;;;20.16;100.00;100372.67;1646013;85;21506;-90
2021/05/28 20:43:30;;;;;;;28.00;8.90;;;;;;;20.22;100.00;100360.98;1645864;87;21660;-89
2021/05/28 20:45:57;;;;;;;31.40;9.75;;;;;;;20.23;100.00;100361.20;1618398;87;21046;-89
2021/05/28 20:48:24;;;;;;;22.50;8.63;;;;;;;20.27;100.00;100358.86;1636541;87;21660;-89
2021/05/28 20:53:33;;;;;;;19.17;7.22;;;;;;;20.31;100.00;100360.36;1555561;90;21006;-89
2021/05/28 20:56:02;;;;;;;20.50;6.70;;;;;;;20.23;100.00;100357.89;1555673;90;21874;-89
2021/05/28 20:58:29;;;;;;;20.08;6.45;;;;;;;20.26;100.00;100353.13;1555479;91;21152;-89
2021/05/28 21:00:55;;;;;;;30.72;8.38;;;;;;;20.25;100.00;100350.73;1556056;90;21106;-90
2021/05/28 21:03:26;;;;;;;31.80;9.15;;;;;;;20.25;100.00;100354.27;1556278;90;21303;-89
2021/05/28 21:05:50;;;;;;;25.35;8.30;;;;;;;20.27;100.00;100352.02;1559329;90;21150;-90
2021/05/28 21:08:15;;;;;;;22.27;6.97;;;;;;;20.29;100.00;100344.83;1556077;91;20994;-90
2021/05/28 21:10:41;;;;;;;18.85;6.12;;;;;;;20.29;100.00;100355.20;1556009;90;21060;-90
2021/05/28 21:13:08;;;;;;;17.35;6.50;;;;;;;20.28;100.00;100342.66;1556288;91;21164;-90
2021/05/28 21:15:34;;;;;;;24.80;8.10;;;;;;;20.29;100.00;100348.36;1556231;90;21086;-90
2021/05/28 21:18:00;;;;;;;29.60;10.48;;;;;;;20.22;100.00;100350.03;1556584;92;21073;-90
2021/05/28 21:20:26;;;;;;;41.25;14.18;;;;;;;20.12;100.00;100346.55;1556086;92;21756;-90
2021/05/28 21:22:53;;;;;;;45.58;13.85;;;;;;;20.06;100.00;100345.67;1556024;90;20932;-90
2021/05/28 21:25:19;;;;;;;37.00;12.15;;;;;;;20.05;100.00;100346.81;1559749;88;21116;-90
2021/05/28 21:27:46;;;;;;;30.90;9.75;;;;;;;20.09;100.00;100339.54;1579344;88;21674;-90
2021/05/28 21:30:14;;;;;;;55.70;14.68;;;;;;;20.13;100.00;100341.30;1579284;88;21163;-90
2021/05/28 21:32:41;;;;;;;51.15;14.40;;;;;;;20.13;100.00;100339.93;1579312;88;22030;-89
2021/05/28 21:35:09;;;;;;;56.90;17.05;;;;;;;20.11;100.00;100333.98;1579289;88;21074;-90
2021/05/28 21:37:35;;;;;;;61.83;16.40;;;;;;;20.10;100.00;100337.86;1579111;88;21061;-90
2021/05/28 21:40:03;;;;;;;46.77;13.80;;;;;;;20.07;100.00;100340.45;1579152;88;20890;-90
2021/05/28 21:42:29;;;;;;;35.28;11.95;;;;;;;20.08;100.00;100337.95;1579297;88;21068;-90
2021/05/28 21:44:57;;;;;;;44.42;13.28;;;;;;;20.04;100.00;100350.69;1579426;88;21073;-90
2021/05/28 21:47:23;;;;;;;35.98;11.73;;;;;;;20.01;100.00;100344.52;1579087;90;21533;-90
2021/05/28 21:49:49;;;;;;;36.30;12.75;;;;;;;19.97;100.00;100349.81;1610596;87;21039;-91
2021/05/28 21:52:16;;;;;;;39.55;12.20;;;;;;;19.93;100.00;100350.25;1645944;87;20968;-91
2021/05/28 21:54:42;;;;;;;42.35;12.68;;;;;;;19.89;100.00;100348.73;1646105;87;21094;-90
2021/05/28 21:57:08;;;;;;;45.63;12.50;;;;;;;19.86;100.00;100353.50;1646071;86;21039;-90
2021/05/28 21:59:34;;;;;;;40.92;11.30;;;;;;;19.87;100.00;100351.56;1645994;86;21658;-91
2021/05/28 22:02:01;;;;;;;37.53;11.93;;;;;;;19.83;100.00;100350.62;1646215;85;20904;-91
2021/05/28 22:04:26;;;;;;;40.55;11.80;;;;;;;19.73;100.00;100342.20;1646070;85;21024;-91
2021/05/28 22:06:52;;;;;;;38.38;11.55;;;;;;;19.66;100.00;100341.91;1646099;87;20943;-90
2021/05/28 22:09:18;;;;;;;40.17;11.40;;;;;;;19.62;100.00;100345.02;1646232;87;21134;-91
2021/05/28 22:11:44;;;;;;;31.77;10.32;;;;;;;19.62;100.00;100343.65;1642734;87;20968;-91
2021/05/28 22:14:10;;;;;;;29.57;11.65;;;;;;;19.60;100.00;100341.83;1646114;86;21460;-91